Latest Weather Observations for Cowra

IDN60801

Issued at 6:23 pm EST Saturday 9 May 2026 (issued every 10 minutes, with the page automatically refreshed every 10 minutes)

About weather observations | Map of weather stations | Latest weather observations for NSW | Other Formats
Station Details ID: 065111 Name: COWRA AIRPORT AWS Lat: -33.84 Lon: 148.65 Height: 300.4 m
Data from the previous 72 hours. | See also: Recent months at Cowra
Date/Time
EST
Temp
°C
App
Temp
°C
Dew
Point
°C
Rel
Hum
%
Delta-T
°C
Wind Press
QNH
hPa
Press
MSL
hPa
Rain since
9am
mm
Dir  Spd
km/h
Gust
km/h
Spd
kts
Gust
kts
09/06:00pm 12.5 10.9 8.2 75 2.1 SSW 6 9 3 5 1025.3 1025.4 0.0
09/05:30pm 14.4 12.6 7.9 65 3.3 SSE 7 9 4 5 1025.0 1025.0 0.0
09/05:00pm 16.1 14.5 8.1 59 4.1 SSE 6 9 3 5 1024.7 1024.7 0.0
09/04:30pm 17.2 15.4 8.1 55 4.7 S 7 11 4 6 1024.6 1024.6 0.0
09/04:00pm 17.9 16.3 8.2 53 5.0 S 6 11 3 6 1024.5 1024.5 0.0
09/03:30pm 18.9 16.7 8.0 49 5.7 WSW 9 13 5 7 1024.4 1024.4 0.0
09/03:00pm 18.6 17.4 8.0 50 5.5 S 4 9 2 5 1024.4 1024.4 0.0
09/02:30pm 19.0 17.5 8.6 51 5.5 WSW 6 13 3 7 1024.4 1024.4 0.0
09/02:00pm 18.3 16.7 8.0 51 5.3 SSW 6 13 3 7 1024.4 1024.4 0.0
09/01:30pm 18.7 17.1 8.1 50 5.5 W 6 9 3 5 1024.5 1024.5 0.0
09/01:00pm 17.2 15.8 8.9 58 4.3 SSW 6 9 3 5 1024.9 1024.9 0.0
09/12:30pm 16.8 15.8 8.8 59 4.2 NNW 4 7 2 4 1025.3 1025.4 0.0
09/12:00pm 16.6 16.6 9.8 64 3.6 CALM 0 6 0 3 1025.8 1025.9 0.0
09/11:30am 15.4 14.0 8.9 65 3.4 NW 6 11 3 6 1026.2 1026.3 0.0
09/11:00am 14.5 13.6 9.1 70 2.8 WNW 4 7 2 4 1026.5 1026.6 0.0
09/10:30am 12.7 12.1 9.0 78 1.9 SSW 2 7 1 4 1026.6 1026.7 0.0
09/10:00am 11.3 9.7 8.7 84 1.3 SSW 7 9 4 5 1026.7 1026.8 0.0
09/09:30am 10.1 8.4 8.2 88 0.9 SSE 7 9 4 5 1026.7 1026.8 0.0
09/09:00am 8.4 6.4 7.2 92 0.6 S 7 9 4 5 1026.7 1026.8 0.0
09/08:30am 7.0 6.2 6.6 97 0.2 CALM 0 0 0 0 1026.5 1026.6 0.0
09/08:00am 5.8 4.8 5.7 99 0.0 CALM 0 0 0 0 1026.3 1026.4 0.0
09/07:30am 3.5 2.1 3.4 99 0.0 CALM 0 0 0 0 1026.0 1026.1 0.0
09/07:00am 3.2 1.3 3.1 99 0.0 SE 2 7 1 4 1025.7 1025.8 0.0
09/06:30am 3.0 1.5 2.9 99 0.0 CALM 0 0 0 0 1025.4 1025.5 0.0
09/06:00am 2.7 1.1 2.4 98 0.1 CALM 0 0 0 0 1025.1 1025.1 0.0
09/05:30am 3.4 1.9 3.1 98 0.1 CALM 0 0 0 0 1024.8 1024.8 0.0
09/05:00am 3.6 1.8 3.3 98 0.1 ESE 2 7 1 4 1024.7 1024.7 0.0
09/04:30am 4.0 2.6 3.7 98 0.1 CALM 0 0 0 0 1024.7 1024.7 0.0
09/04:00am 4.0 2.6 3.7 98 0.1 CALM 0 6 0 3 1024.4 1024.4 0.0
09/03:30am 4.5 3.2 4.2 98 0.1 CALM 0 0 0 0 1024.2 1024.2 0.0
09/03:00am 4.8 3.6 4.5 98 0.1 CALM 0 0 0 0 1024.3 1024.3 0.0
09/02:30am 4.7 3.4 4.3 97 0.2 CALM 0 0 0 0 1024.4 1024.4 0.0
09/02:00am 5.9 4.8 5.3 96 0.3 CALM 0 0 0 0 1024.5 1024.5 0.0
09/01:30am 6.2 5.2 5.6 96 0.3 CALM 0 0 0 0 1024.4 1024.4 0.0
09/01:00am 7.0 5.0 6.3 95 0.3 NE 6 7 3 4 1024.3 1024.3 0.0
09/12:30am 7.7 5.9 7.1 96 0.3 NE 6 9 3 5 1024.2 1024.2 0.0
09/12:00am 7.5 6.8 7.1 97 0.2 CALM 0 0 0 0 1024.2 1024.2 0.0
 
Date/Time
EST
Temp
°C
App
Temp
°C
Dew
Point
°C
Rel
Hum
%
Delta-T
°C
Wind Press
QNH
hPa
Press
MSL
hPa
Rain since
9am
mm
Dir  Spd
km/h
Gust
km/h
Spd
kts
Gust
kts
08/11:30pm 7.5 6.0 6.6 94 0.4 NNE 4 9 2 5 1024.4 1024.4 0.0
08/11:00pm 8.2 6.4 7.3 94 0.4 N 6 7 3 4 1024.4 1024.4 0.0
08/10:30pm 8.4 6.7 7.5 94 0.4 NE 6 9 3 5 1024.6 1024.6 0.0
08/10:00pm 8.4 6.7 7.5 94 0.4 NNE 6 9 3 5 1024.5 1024.5 0.0
08/09:30pm 8.6 7.9 6.9 89 0.8 CALM 0 0 0 0 1024.4 1024.4 0.0
08/09:00pm 9.4 8.9 7.8 90 0.8 CALM 0 0 0 0 1024.4 1024.4 0.0
08/08:30pm 10.0 9.6 8.1 88 0.9 CALM 0 0 0 0 1024.2 1024.2 0.0
08/08:00pm 10.8 10.5 8.6 86 1.1 CALM 0 6 0 3 1023.8 1023.9 0.0
08/07:30pm 11.4 9.8 8.8 84 1.3 NE 7 11 4 6 1023.5 1023.6 0.0
08/07:00pm 11.5 9.9 8.7 83 1.4 ENE 7 9 4 5 1023.4 1023.5 0.0
08/06:30pm 12.2 11.2 9.0 81 1.6 NNW 4 9 2 5 1023.3 1023.4 0.0
08/06:00pm 12.4 11.4 8.9 79 1.8 NE 4 7 2 4 1023.0 1023.1 0.0
08/05:30pm 12.2 10.8 8.9 80 1.7 ENE 6 9 3 5 1022.9 1023.0 0.0
08/05:00pm 13.0 11.4 8.7 75 2.2 WSW 7 9 4 5 1022.7 1022.8 0.0
08/04:30pm 13.2 10.8 8.5 73 2.4 SW 11 15 6 8 1022.7 1022.8 0.0
08/04:00pm 13.5 10.0 8.6 72 2.5 WSW 17 24 9 13 1022.4 1022.5 0.0
08/03:30pm 13.3 10.5 8.6 73 2.4 WSW 13 20 7 11 1022.5 1022.6 0.0
08/03:00pm 13.1 10.3 8.6 74 2.3 WSW 13 17 7 9 1022.5 1022.6 0.0
08/02:30pm 12.7 9.1 8.2 74 2.3 WSW 17 20 9 11 1022.5 1022.6 0.0
08/02:00pm 12.7 9.8 8.0 73 2.3 WSW 13 19 7 10 1022.6 1022.7 0.0
08/01:30pm 12.2 10.0 7.7 74 2.2 W 9 15 5 8 1022.7 1022.8 0.0
08/01:00pm 12.7 9.3 7.8 72 2.4 W 15 24 8 13 1022.6 1022.7 0.0
08/12:30pm 12.1 9.1 7.6 74 2.2 NW 13 17 7 9 1022.9 1023.0 0.0
08/12:00pm 12.3 9.0 8.0 75 2.1 NW 15 20 8 11 1023.2 1023.3 0.0
08/11:30am 11.9 7.7 7.4 74 2.2 WSW 19 24 10 13 1023.5 1023.6 0.0
08/11:00am 11.4 6.9 6.9 74 2.2 SW 20 28 11 15 1024.1 1024.1 0.0
08/10:30am 11.6 8.6 7.5 76 2.0 W 13 20 7 11 1024.1 1024.1 0.0
08/10:00am 10.9 6.0 6.8 76 2.0 WSW 22 30 12 16 1024.3 1024.3 0.0
08/09:30am 9.9 5.4 7.0 82 1.4 WSW 20 30 11 16 1024.4 1024.4 0.0
08/09:00am 9.5 4.4 6.0 79 1.6 WSW 22 30 12 16 1024.4 1024.4 0.0
08/08:30am 8.9 7.9 5.6 80 1.5 CALM 0 9 0 5 1024.1 1024.1 0.0
08/08:00am 7.1 4.8 4.9 86 1.0 NNW 6 9 3 5 1024.0 1024.0 0.0
08/07:30am 6.0 3.0 4.0 87 0.9 N 9 11 5 6 1023.7 1023.8 0.0
08/07:00am 5.5 2.8 3.5 87 0.8 N 7 9 4 5 1023.4 1023.5 0.0
08/06:30am 5.5 3.0 3.7 88 0.8 NNW 6 9 3 5 1023.5 1023.6 0.0
08/06:00am 6.1 3.0 3.4 83 1.1 NW 9 13 5 7 1023.3 1023.4 0.0
08/05:30am 6.0 2.8 3.2 82 1.2 NNW 9 13 5 7 1023.2 1023.3 0.0
08/05:00am 5.6 2.4 3.1 84 1.0 NW 9 15 5 8 1023.2 1023.3 0.0
08/04:30am 6.2 3.1 3.4 82 1.2 N 9 15 5 8 1023.4 1023.5 0.0
08/04:00am 6.1 3.0 3.6 84 1.1 NNW 9 15 5 8 1023.0 1023.1 0.0
08/03:30am 6.3 3.1 3.1 80 1.4 N 9 13 5 7 1022.9 1023.0 0.0
08/03:00am 6.0 3.5 3.5 84 1.1 N 6 9 3 5 1023.2 1023.3 0.0
08/02:30am 5.5 2.9 3.2 85 1.0 ENE 6 7 3 4 1023.3 1023.4 0.0
08/02:00am 4.7 3.0 2.1 83 1.1 CALM 0 6 0 3 1023.6 1023.7 0.0
08/01:30am 5.4 2.6 2.1 79 1.4 NW 6 7 3 4 1023.6 1023.7 0.0
08/01:00am 5.3 2.3 1.8 78 1.4 WNW 7 9 4 5 1023.7 1023.8 0.0
08/12:30am 5.1 2.3 1.8 79 1.3 WNW 6 9 3 5 1024.0 1024.0 0.0
08/12:00am 4.8 1.0 1.7 80 1.2 WSW 11 13 6 7 1024.1 1024.1 0.0
 
Date/Time
EST
Temp
°C
App
Temp
°C
Dew
Point
°C
Rel
Hum
%
Delta-T
°C
Wind Press
QNH
hPa
Press
MSL
hPa
Rain since
9am
mm
Dir  Spd
km/h
Gust
km/h
Spd
kts
Gust
kts
07/11:30pm 5.9 2.1 2.0 76 1.6 S 11 15 6 8 1024.1 1024.1 0.0
07/11:00pm 5.1 1.7 1.8 79 1.3 SSW 9 13 5 7 1024.0 1024.0 0.0
07/10:30pm 6.4 1.5 2.3 75 1.7 SW 17 24 9 13 1024.0 1024.0 0.0
07/10:00pm 5.0 2.5 1.3 77 1.5 E 4 7 2 4 1024.1 1024.1 0.0
07/09:30pm 5.1 2.6 1.4 77 1.5 ESE 4 7 2 4 1024.0 1024.0 0.0
07/09:00pm 4.8 3.1 1.7 80 1.2 CALM 0 0 0 0 1024.0 1024.0 0.0
07/08:30pm 4.7 1.6 1.4 79 1.3 SW 7 11 4 6 1023.6 1023.7 0.0
07/08:00pm 5.3 0.8 2.0 79 1.3 SW 15 19 8 10 1023.5 1023.6 0.0
07/07:30pm 5.1 1.2 1.4 77 1.5 SW 11 15 6 8 1023.3 1023.4 0.0
07/07:00pm 6.5 1.6 2.0 73 1.9 WSW 17 20 9 11 1023.2 1023.3 0.0
07/06:30pm 6.2 2.4 1.5 72 1.9 SW 11 13 6 7 1023.1 1023.2 0.0
07/06:00pm 8.0 2.0 1.2 62 2.8 WSW 22 28 12 15 1022.5 1022.6 0.0
07/05:30pm 8.3 1.9 1.0 60 3.0 WSW 24 32 13 17 1022.0 1022.0 0.0
07/05:00pm 9.0 1.4 0.7 56 3.4 WSW 30 39 16 21 1021.6 1021.6 0.0
07/04:30pm 10.0 2.2 1.4 55 3.6 SW 32 43 17 23 1021.4 1021.4 0.0
07/04:00pm 10.6 1.7 0.9 51 4.1 SW 37 50 20 27 1021.4 1021.4 0.0
07/03:30pm 11.3 2.4 0.7 48 4.5 WSW 37 54 20 29 1021.1 1021.1 0.0
07/03:00pm 11.8 3.0 1.2 48 4.5 WSW 37 50 20 27 1020.7 1020.7 0.0
07/02:51pm 11.7 2.5 1.4 49 4.4 WSW 39 57 21 31 1020.7 1020.7 0.0
07/02:30pm 11.0 1.4 1.3 51 4.1 SW 41 54 22 29 1020.5 1020.5 0.0
07/02:00pm 11.7 1.7 1.1 48 4.5 WSW 43 54 23 29 1020.1 1020.2 0.0
07/01:35pm 11.8 3.1 1.7 50 4.4 SW 37 56 20 30 1020.2 1020.3 0.0
07/01:30pm 12.0 3.0 2.2 51 4.3 SW 39 56 21 30 1020.2 1020.3 0.0
07/01:09pm 11.6 2.4 1.3 49 4.4 SW 39 57 21 31 1020.1 1020.2 0.0
07/01:00pm 11.6 2.5 1.8 51 4.2 WSW 39 50 21 27 1019.9 1020.0 0.0
07/12:30pm 11.2 1.7 1.7 52 4.1 WSW 41 52 22 28 1019.9 1020.0 0.0
07/12:00pm 10.9 2.6 2.2 55 3.8 SW 35 50 19 27 1020.6 1020.6 0.0
07/11:30am 10.7 2.8 2.0 55 3.8 WSW 33 48 18 26 1021.0 1021.0 0.0
07/11:08am 11.0 3.9 3.3 59 3.4 SW 30 48 16 26 1021.1 1021.1 0.0
07/11:00am 11.0 3.9 3.8 61 3.2 WSW 30 44 16 24 1021.1 1021.1 0.0
07/10:30am 10.0 2.3 2.1 58 3.4 WSW 32 43 17 23 1021.0 1021.0 0.0
07/10:00am 9.9 2.1 2.7 61 3.1 WSW 33 43 18 23 1020.9 1020.9 0.0
07/09:30am 9.6 2.5 3.8 67 2.6 WSW 30 41 16 22 1020.5 1020.5 0.0
07/09:00am 8.9 0.8 3.5 69 2.4 SW 35 50 19 27 1020.2 1020.3 0.0
07/08:30am 8.4 -0.3 4.0 74 1.9 SW 39 52 21 28 1019.7 1019.8 0.0
07/08:00am 8.7 1.5 5.1 78 1.6 SW 32 41 17 22 1019.0 1019.0 0.0
07/07:30am 8.8 1.6 5.0 77 1.7 SW 32 44 17 24 1018.5 1018.5 0.0
07/07:00am 9.0 1.2 5.0 76 1.8 SW 35 44 19 24 1018.0 1018.0 0.0
07/06:47am 8.7 4.8 7.2 90 0.7 WNW 17 50 9 27 1017.8 1017.8 0.0
07/06:30am 9.2 6.7 8.3 94 0.4 NNW 11 13 6 7 1017.3 1017.3 0.0
07/06:00am 9.5 6.7 8.7 95 0.4 NW 13 17 7 9 1017.2 1017.2 0.0
07/05:30am 9.0 7.4 8.2 95 0.4 NNW 6 9 3 5 1017.3 1017.3 0.0
07/05:00am 9.1 6.2 8.3 95 0.4 NNW 13 17 7 9 1017.4 1017.4 0.0
07/04:30am 8.8 5.5 8.2 96 0.3 N 15 17 8 9 1017.3 1017.3 0.0
07/04:00am 8.8 5.9 8.2 96 0.3 NNW 13 15 7 8 1017.3 1017.3 0.0
07/03:30am 8.5 6.4 8.1 97 0.2 NNW 9 11 5 6 1017.6 1017.6 0.0
07/03:00am 8.1 5.9 7.8 98 0.1 N 9 13 5 7 1017.7 1017.7 0.0
07/02:30am 7.7 7.1 7.4 98 0.1 CALM 0 0 0 0 1018.2 1018.2 0.0
07/02:00am 8.0 7.5 7.7 98 0.1 CALM 0 0 0 0 1018.5 1018.5 0.0
07/01:30am 7.1 5.2 6.7 97 0.2 NNE 6 7 3 4 1018.6 1018.6 0.0
07/01:00am 7.4 6.7 7.0 97 0.2 CALM 0 0 0 0 1018.8 1018.8 0.0
07/12:30am 7.5 6.8 7.1 97 0.2 CALM 0 0 0 0 1019.1 1019.1 0.0
07/12:00am 7.6 6.9 7.0 96 0.3 CALM 0 0 0 0 1019.3 1019.3 0.0
 
Date/Time
EST
Temp
°C
App
Temp
°C
Dew
Point
°C
Rel
Hum
%
Delta-T
°C
Wind Press
QNH
hPa
Press
MSL
hPa
Rain since
9am
mm
Dir  Spd
km/h
Gust
km/h
Spd
kts
Gust
kts
06/11:30pm 8.2 7.6 7.6 96 0.3 CALM 0 0 0 0 1019.3 1019.3 0.0
06/11:00pm 7.9 7.2 7.1 95 0.4 CALM 0 0 0 0 1019.4 1019.4 0.0
06/10:30pm 8.3 7.6 6.8 90 0.7 CALM 0 0 0 0 1019.5 1019.6 0.0
06/10:00pm 9.0 8.5 7.8 92 0.6 CALM 0 0 0 0 1019.5 1019.6 0.0
06/09:30pm 9.2 8.7 7.8 91 0.7 CALM 0 0 0 0 1019.7 1019.8 0.0
06/09:00pm 9.5 9.1 8.1 91 0.7 CALM 0 0 0 0 1019.7 1019.8 0.0
06/08:30pm 9.6 9.1 8.0 90 0.8 CALM 0 0 0 0 1019.7 1019.8 0.0
06/08:00pm 10.3 9.9 8.1 86 1.1 CALM 0 0 0 0 1019.6 1019.7 0.0
06/07:30pm 10.7 10.3 8.3 85 1.2 CALM 0 0 0 0 1019.4 1019.4 0.0
06/07:00pm 11.2 10.8 8.2 82 1.5 CALM 0 0 0 0 1019.1 1019.1 0.0
06/06:30pm 12.1 10.5 8.2 77 2.0 SW 6 9 3 5 1018.9 1018.9 0.0

Other formats

Comma delimited format used in spreadsheet applications
http://www.bom.gov.au/fwo/IDN60801/IDN60801.95721.axf

JavaScript Object Notation format (JSON) in row-major order
http://www.bom.gov.au/fwo/IDN60801/IDN60801.95721.json

Data quality

Most of these data are generated automatically and are frequently updated. Quality checks on data are not normally performed. It is possible for incorrect values to appear. Refer to information at About Latest Weather Observations and please check the disclaimer before using these data.